createdAt,value
2023-01-13T00:01:32.642Z,100436.72
2023-01-13T00:04:02.466Z,100436.78
2023-01-13T00:06:30.921Z,100427.88
2023-01-13T00:08:59.430Z,100431.38
2023-01-13T00:11:30.354Z,100427.41
2023-01-13T00:13:58.781Z,100416.91
2023-01-13T00:16:27.194Z,100405.63
2023-01-13T00:18:55.629Z,100415.38
2023-01-13T00:21:26.063Z,100411.44
2023-01-13T00:23:56.076Z,100402.81
2023-01-13T00:26:25.805Z,100419.63
2023-01-13T00:28:58.106Z,100412.06
2023-01-13T00:31:30.871Z,100415.38
2023-01-13T00:34:00.217Z,100406.97
2023-01-13T00:36:37.683Z,100428.50
2023-01-13T00:39:06.129Z,100422.81
2023-01-13T00:41:48.897Z,100417.59
2023-01-13T00:44:20.436Z,100416.31
2023-01-13T00:46:48.946Z,100402.63
2023-01-13T00:49:17.429Z,100405.16
2023-01-13T00:51:47.271Z,100397.38
2023-01-13T00:54:15.702Z,100390.28
2023-01-13T00:56:44.059Z,100393.50
2023-01-13T00:59:13.963Z,100387.06
2023-01-13T01:01:43.268Z,100383.38
2023-01-13T01:04:14.752Z,100382.59
2023-01-13T01:06:45.789Z,100365.84
2023-01-13T01:09:18.643Z,100353.81
2023-01-13T01:11:49.685Z,100364.63
2023-01-13T01:14:20.775Z,100358.78
2023-01-13T01:16:54.150Z,100370.81
2023-01-13T01:19:24.822Z,100358.78
2023-01-13T01:21:53.268Z,100349.16
2023-01-13T01:24:23.034Z,100350.13
2023-01-13T01:26:51.488Z,100351.06
2023-01-13T01:29:20.035Z,100365.97
2023-01-13T01:31:48.558Z,100347.50
2023-01-13T01:34:17.037Z,100353.13
2023-01-13T01:36:50.754Z,100348.84
2023-01-13T01:39:19.116Z,100345.94
2023-01-13T01:42:02.802Z,100323.38
2023-01-13T01:44:55.225Z,100334.97
2023-01-13T01:47:25.401Z,100322.50
2023-01-13T01:49:54.814Z,100304.53
2023-01-13T01:52:26.300Z,100308.41
2023-01-13T01:54:59.532Z,100310.38
2023-01-13T01:57:34.757Z,100300.44
2023-01-13T02:00:03.871Z,100310.25
2023-01-13T02:02:42.689Z,100300.72
2023-01-13T02:05:11.852Z,100301.50
2023-01-13T02:07:41.753Z,100309.69
2023-01-13T02:10:12.532Z,100293.44
2023-01-13T02:12:43.984Z,100288.84
2023-01-13T02:15:14.703Z,100293.00
2023-01-13T02:18:07.714Z,100298.28
2023-01-13T02:21:00.589Z,100298.41
2023-01-13T02:24:31.794Z,100303.44
2023-01-13T02:27:25.463Z,100301.50
2023-01-13T02:30:21.124Z,100312.00
2023-01-13T02:33:01.520Z,100307.41
2023-01-13T02:35:34.828Z,100308.41
2023-01-13T02:38:06.119Z,100311.59
2023-01-13T02:40:37.611Z,100312.19
2023-01-13T02:43:27.287Z,100313.38
2023-01-13T02:46:03.876Z,100318.50
2023-01-13T02:48:33.178Z,100319.19
2023-01-13T02:51:07.482Z,100330.75
2023-01-13T02:53:38.493Z,100328.91
2023-01-13T02:56:08.234Z,100327.25
2023-01-13T02:58:38.106Z,100325.91
2023-01-13T03:01:08.312Z,100315.22
2023-01-13T03:03:37.225Z,100321.44
2023-01-13T03:06:19.124Z,100315.59
2023-01-13T03:08:51.367Z,100304.91
2023-01-13T03:11:21.037Z,100307.91
2023-01-13T03:13:57.401Z,100294.97
2023-01-13T03:16:32.899Z,100302.09
2023-01-13T03:19:11.617Z,100302.78
2023-01-13T03:21:42.746Z,100300.63
2023-01-13T03:24:15.385Z,100299.94
2023-01-13T03:26:51.149Z,100287.31
2023-01-13T03:29:23.048Z,100293.91
2023-01-13T03:31:57.072Z,100290.59
2023-01-13T03:34:31.056Z,100294.97
2023-01-13T03:37:03.778Z,100286.22
2023-01-13T03:39:36.221Z,100282.44
2023-01-13T03:42:08.645Z,100281.28
2023-01-13T03:44:41.174Z,100288.75
2023-01-13T03:47:14.927Z,100290.59
2023-01-13T03:49:47.688Z,100300.91
2023-01-13T03:52:20.643Z,100318.41
2023-01-13T03:54:52.362Z,100306.84
2023-01-13T03:57:24.816Z,100316.28
2023-01-13T03:59:59.139Z,100299.44
2023-01-13T04:02:38.248Z,100315.28
2023-01-13T04:05:09.651Z,100314.03
2023-01-13T04:07:45.420Z,100315.97
2023-01-13T04:10:13.964Z,100325.31
2023-01-13T04:13:00.212Z,100326.31
2023-01-13T04:15:30.521Z,100322.78
2023-01-13T04:18:17.444Z,100322.41
2023-01-13T04:20:47.531Z,100312.38
2023-01-13T04:23:18.820Z,100308.47
2023-01-13T04:25:47.669Z,100308.09
2023-01-13T04:28:17.141Z,100330.69
2023-01-13T04:30:46.507Z,100331.75
2023-01-13T04:33:19.371Z,100324.63
2023-01-13T04:35:48.476Z,100318.91
2023-01-13T04:38:18.101Z,100319.66
2023-01-13T04:40:49.048Z,100326.69
2023-01-13T04:43:17.472Z,100319.09
2023-01-13T04:45:46.118Z,100317.22
2023-01-13T04:48:16.035Z,100300.72
2023-01-13T04:50:44.523Z,100306.56
2023-01-13T04:53:12.933Z,100305.47
2023-01-13T04:55:46.426Z,100309.16
2023-01-13T04:58:15.349Z,100309.69
2023-01-13T05:00:45.271Z,100318.91
2023-01-13T05:03:17.261Z,100320.09
2023-01-13T05:05:45.698Z,100335.91
2023-01-13T05:08:14.041Z,100327.94
2023-01-13T05:37:33.474Z,100333.28
2023-01-13T05:40:19.492Z,100338.81
2023-01-13T05:43:07.278Z,100343.31
2023-01-13T05:45:35.742Z,100334.84
2023-01-13T05:48:04.319Z,100343.78
2023-01-13T05:50:32.830Z,100341.56
2023-01-13T05:53:08.653Z,100333.00
2023-01-13T05:55:37.110Z,100347.31
2023-01-13T05:58:06.780Z,100329.13
2023-01-13T06:00:35.198Z,100328.72
2023-01-13T06:03:06.210Z,100324.16
2023-01-13T06:05:35.263Z,100320.44
2023-01-13T06:08:05.226Z,100326.31
2023-01-13T06:10:35.669Z,100322.31
2023-01-13T06:13:04.511Z,100317.81
2023-01-13T06:15:33.392Z,100328.41
2023-01-13T06:18:10.390Z,100333.13
2023-01-13T06:20:40.641Z,100329.47
2023-01-13T06:23:10.849Z,100316.44
2023-01-13T06:25:46.202Z,100325.09
2023-01-13T06:28:14.958Z,100320.72
2023-01-13T06:30:45.026Z,100310.91
2023-01-13T06:33:15.882Z,100320.88
2023-01-13T06:35:46.395Z,100328.88
2023-01-13T06:38:16.167Z,100318.28
2023-01-13T06:40:46.056Z,100316.97
2023-01-13T06:43:17.136Z,100315.19
2023-01-13T06:45:49.623Z,100304.47
2023-01-13T06:48:18.867Z,100317.72
2023-01-13T06:50:50.193Z,100328.16
2023-01-13T06:53:20.745Z,100311.16
2023-01-13T06:55:50.598Z,100310.53
2023-01-13T06:58:19.246Z,100303.34
2023-01-13T07:00:51.443Z,100303.31
2023-01-13T07:03:20.818Z,100296.81
2023-01-13T07:05:55.321Z,100298.13
2023-01-13T07:08:24.092Z,100319.97
2023-01-13T07:10:54.345Z,100317.13
2023-01-13T07:13:40.361Z,100325.94
2023-01-13T07:16:10.412Z,100325.47
2023-01-13T07:18:39.422Z,100322.78
2023-01-13T07:21:09.528Z,100329.22
2023-01-13T07:23:39.602Z,100325.84
2023-01-13T07:26:12.500Z,100334.59
2023-01-13T07:28:41.920Z,100341.41
2023-01-13T07:31:16.075Z,100347.75
2023-01-13T07:33:44.725Z,100359.50
2023-01-13T07:36:13.546Z,100359.72
2023-01-13T07:38:47.552Z,100360.88
2023-01-13T07:41:35.161Z,100371.41
2023-01-13T07:44:06.400Z,100372.63
2023-01-13T07:46:36.405Z,100351.13
2023-01-13T07:49:04.978Z,100348.22
2023-01-13T07:51:33.713Z,100346.66
2023-01-13T07:54:09.866Z,100348.41
2023-01-13T07:56:41.848Z,100349.84
2023-01-13T07:59:10.418Z,100334.81
2023-01-13T08:01:39.148Z,100339.44
2023-01-13T08:04:07.679Z,100338.50
2023-01-13T08:06:38.978Z,100354.22
2023-01-13T08:09:07.440Z,100339.81
2023-01-13T08:11:38.239Z,100346.91
2023-01-13T08:14:08.108Z,100348.38
2023-01-13T08:16:41.936Z,100337.91
2023-01-13T08:19:10.392Z,100349.94
2023-01-13T08:21:38.966Z,100345.75
2023-01-13T08:24:08.019Z,100341.59
2023-01-13T08:26:36.588Z,100349.16
2023-01-13T08:29:05.033Z,100347.53
2023-01-13T08:31:37.931Z,100342.72
2023-01-13T08:34:06.489Z,100359.56
2023-01-13T08:36:34.988Z,100362.09
2023-01-13T08:39:06.131Z,100353.44
2023-01-13T08:41:51.879Z,100342.47
2023-01-13T08:44:21.475Z,100339.94
2023-01-13T08:46:51.334Z,100331.06
2023-01-13T08:49:20.131Z,100336.91
2023-01-13T08:51:54.510Z,100349.25
2023-01-13T08:54:23.291Z,100329.34
2023-01-13T08:57:00.616Z,100322.03
2023-01-13T08:59:29.252Z,100330.66
2023-01-13T09:02:01.242Z,100328.50
2023-01-13T09:04:30.405Z,100321.56
2023-01-13T09:07:03.041Z,100333.44
2023-01-13T09:09:31.854Z,100325.63
2023-01-13T09:12:18.047Z,100320.38
2023-01-13T09:14:46.508Z,100312.41
2023-01-13T09:17:19.167Z,100327.84
2023-01-13T09:19:47.612Z,100312.34
2023-01-13T09:22:17.622Z,100313.22
2023-01-13T09:24:50.988Z,100319.50
2023-01-13T09:27:21.845Z,100316.47
2023-01-13T09:29:51.439Z,100321.25
2023-01-13T09:32:34.563Z,100314.50
2023-01-13T09:35:05.646Z,100303.28
2023-01-13T09:37:37.912Z,100300.38
2023-01-13T09:40:10.247Z,100301.97
2023-01-13T09:43:12.098Z,100278.81
2023-01-13T09:45:48.160Z,100296.53
2023-01-13T09:48:27.954Z,100294.47
2023-01-13T09:51:04.927Z,100299.44
2023-01-13T09:53:45.107Z,100309.91
2023-01-13T09:56:14.795Z,100306.06
2023-01-13T09:58:43.754Z,100303.16
2023-01-13T10:01:20.211Z,100304.91
2023-01-13T10:03:52.635Z,100316.19
2023-01-13T10:06:23.430Z,100309.28
2023-01-13T10:08:56.151Z,100319.78
2023-01-13T10:11:48.078Z,100302.78
2023-01-13T10:14:20.632Z,100325.16
2023-01-13T10:16:52.770Z,100305.78
2023-01-13T10:19:29.384Z,100311.91
2023-01-13T10:22:23.493Z,100317.56
2023-01-13T10:25:12.412Z,100305.09
2023-01-13T10:27:43.316Z,100298.06
2023-01-13T10:30:20.578Z,100312.59
2023-01-13T10:32:54.742Z,100309.19
2023-01-13T10:35:56.956Z,100311.91
2023-01-13T10:38:27.546Z,100304.72
2023-01-13T10:40:57.999Z,100296.28
2023-01-13T10:43:28.177Z,100288.91
2023-01-13T10:46:01.187Z,100299.75
2023-01-13T10:48:41.753Z,100289.53
2023-01-13T10:51:33.170Z,100296.97
2023-01-13T10:54:03.176Z,100292.81
2023-01-13T10:56:33.557Z,100294.97
2023-01-13T10:59:22.394Z,100297.56
2023-01-13T11:02:00.927Z,100308.50
2023-01-13T11:04:33.394Z,100316.69
2023-01-13T11:07:07.748Z,100303.16
2023-01-13T11:09:36.325Z,100308.94
2023-01-13T11:12:05.383Z,100310.50
2023-01-13T11:14:43.620Z,100309.63
2023-01-13T11:17:41.123Z,100292.97
2023-01-13T11:20:18.549Z,100303.06
2023-01-13T11:22:51.396Z,100307.06
2023-01-13T11:25:27.128Z,100310.91
2023-01-13T11:28:01.006Z,100300.19
2023-01-13T11:30:34.817Z,100306.75
2023-01-13T11:33:18.853Z,100310.56
2023-01-13T11:35:52.962Z,100314.16
2023-01-13T11:38:30.257Z,100324.94
2023-01-13T11:41:03.407Z,100307.72
2023-01-13T11:43:36.480Z,100328.06
2023-01-13T11:46:05.782Z,100325.91
2023-01-13T11:48:37.412Z,100324.19
2023-01-13T11:51:12.026Z,100326.38
2023-01-13T11:54:00.146Z,100333.91
2023-01-13T11:56:44.850Z,100328.47
2023-01-13T11:59:24.358Z,100335.38
2023-01-13T12:02:09.526Z,100328.84
2023-01-13T12:04:40.303Z,100321.59
2023-01-13T12:07:17.325Z,100313.63
2023-01-13T12:10:05.472Z,100316.72
2023-01-13T12:12:50.481Z,100326.78
2023-01-13T12:15:32.750Z,100329.00
2023-01-13T12:18:11.451Z,100320.94
2023-01-13T12:20:45.224Z,100318.84
2023-01-13T12:23:21.659Z,100325.66
2023-01-13T12:25:54.331Z,100317.97
2023-01-13T12:28:26.367Z,100334.59
2023-01-13T12:31:01.064Z,100337.34
2023-01-13T12:33:44.373Z,100318.81
2023-01-13T12:36:18.775Z,100340.75
2023-01-13T12:38:50.366Z,100340.06
2023-01-13T12:41:37.113Z,100328.75
2023-01-13T12:44:17.822Z,100334.34
2023-01-13T12:46:59.804Z,100340.31
2023-01-13T12:49:30.568Z,100344.94
2023-01-13T12:52:11.099Z,100336.81
2023-01-13T12:55:13.619Z,100346.31
2023-01-13T12:57:58.850Z,100346.94
2023-01-13T13:00:32.815Z,100347.38
2023-01-13T13:03:29.834Z,100349.38
2023-01-13T13:06:05.343Z,100338.69
2023-01-13T13:08:49.737Z,100345.81
2023-01-13T13:11:54.062Z,100337.78
2023-01-13T13:15:01.656Z,100347.66
2023-01-13T13:17:44.548Z,100354.84
2023-01-13T13:20:47.417Z,100357.25
2023-01-13T13:23:44.471Z,100361.06
2023-01-13T13:26:20.457Z,100354.69
2023-01-13T13:29:09.961Z,100353.53
2023-01-13T13:32:03.454Z,100365.66
2023-01-13T13:34:38.686Z,100357.59
2023-01-13T13:37:17.911Z,100349.25
2023-01-13T13:40:04.127Z,100372.03
2023-01-13T13:42:57.312Z,100375.19
2023-01-13T13:45:45.131Z,100363.88
2023-01-13T13:48:21.146Z,100361.91
2023-01-13T13:50:55.479Z,100369.50
2023-01-13T13:53:25.646Z,100371.84
2023-01-13T13:55:56.998Z,100375.69
2023-01-13T13:58:26.470Z,100377.53
2023-01-13T14:00:56.785Z,100377.41
2023-01-13T14:03:27.781Z,100367.41
2023-01-13T14:06:01.711Z,100375.22
2023-01-13T14:08:35.422Z,100367.34
2023-01-13T14:11:26.868Z,100377.22
2023-01-13T14:14:04.605Z,100378.59
2023-01-13T14:16:35.494Z,100354.13
2023-01-13T14:19:04.897Z,100367.78
2023-01-13T14:21:37.326Z,100370.56
2023-01-13T14:24:15.461Z,100369.34
2023-01-13T14:26:44.397Z,100370.81
2023-01-13T14:29:22.083Z,100362.97
2023-01-13T14:31:50.756Z,100377.59
2023-01-13T14:34:31.134Z,100374.22
2023-01-13T14:37:03.168Z,100373.78
2023-01-13T14:39:39.122Z,100371.25
2023-01-13T14:42:13.973Z,100377.31
2023-01-13T14:44:45.174Z,100369.50
2023-01-13T14:47:23.026Z,100362.41
2023-01-13T14:50:00.580Z,100374.03
2023-01-13T14:52:31.673Z,100379.16
2023-01-13T14:55:25.991Z,100374.94
2023-01-13T14:57:54.808Z,100379.34
2023-01-13T15:00:27.898Z,100370.13
2023-01-13T15:03:07.809Z,100387.56
2023-01-13T15:05:38.779Z,100377.06
2023-01-13T15:08:41.770Z,100375.44
2023-01-13T15:11:21.861Z,100378.13
2023-01-13T15:13:57.211Z,100371.59
2023-01-13T15:16:26.950Z,100369.78
2023-01-13T15:18:58.500Z,100373.53
2023-01-13T15:21:26.968Z,100371.22
2023-01-13T15:23:59.108Z,100372.97
2023-01-13T15:26:30.340Z,100371.63
2023-01-13T15:29:00.782Z,100357.06
2023-01-13T15:31:29.642Z,100359.72
2023-01-13T15:33:58.951Z,100352.03
2023-01-13T15:36:29.091Z,100362.53
2023-01-13T15:39:00.230Z,100353.09
2023-01-13T15:41:46.528Z,100346.19
2023-01-13T15:44:33.843Z,100340.50
2023-01-13T15:47:06.669Z,100345.88
2023-01-13T15:49:37.978Z,100342.06
2023-01-13T15:52:13.780Z,100355.91
2023-01-13T15:54:45.804Z,100364.28
2023-01-13T15:57:22.666Z,100352.44
2023-01-13T15:59:51.482Z,100351.22
2023-01-13T16:02:20.324Z,100365.09
2023-01-13T16:04:51.048Z,100356.72
2023-01-13T16:07:20.087Z,100352.50
2023-01-13T16:09:52.653Z,100356.81
2023-01-13T16:12:21.388Z,100351.56
2023-01-13T16:14:49.792Z,100346.66
2023-01-13T16:17:19.898Z,100349.47
2023-01-13T16:19:48.770Z,100349.91
2023-01-13T16:22:19.417Z,100337.84
2023-01-13T16:24:52.078Z,100346.16
2023-01-13T16:27:21.880Z,100345.34
2023-01-13T16:29:51.566Z,100340.63
2023-01-13T16:32:21.119Z,100340.03
2023-01-13T16:34:49.677Z,100341.69
2023-01-13T16:37:21.756Z,100350.88
2023-01-13T16:39:54.195Z,100347.88
2023-01-13T16:42:22.675Z,100352.44
2023-01-13T16:44:53.013Z,100353.56
2023-01-13T16:47:24.969Z,100358.38
2023-01-13T16:49:53.375Z,100355.59
2023-01-13T16:52:21.827Z,100353.78
2023-01-13T16:54:56.773Z,100353.22
2023-01-13T16:57:28.263Z,100353.16
2023-01-13T16:59:56.672Z,100352.78
2023-01-13T17:02:25.061Z,100355.06
2023-01-13T17:04:53.469Z,100349.56
2023-01-13T17:07:24.396Z,100351.59
2023-01-13T17:09:54.276Z,100352.72
2023-01-13T17:12:22.714Z,100352.53
2023-01-13T17:14:53.153Z,100350.91
2023-01-13T17:17:24.621Z,100357.09
2023-01-13T17:19:53.575Z,100351.84
2023-01-13T17:22:25.053Z,100350.63
2023-01-13T17:24:54.852Z,100356.81
2023-01-13T17:27:26.015Z,100353.59
2023-01-13T17:29:54.566Z,100352.47
2023-01-13T17:32:24.209Z,100353.94
2023-01-13T17:34:54.002Z,100349.50
2023-01-13T17:37:22.444Z,100342.34
2023-01-13T17:39:51.229Z,100351.78
2023-01-13T17:42:21.473Z,100339.19
2023-01-13T17:44:53.085Z,100344.25
2023-01-13T17:47:22.611Z,100350.78
2023-01-13T17:49:51.144Z,100355.34
2023-01-13T17:52:20.355Z,100361.72
2023-01-13T17:54:48.816Z,100356.66
2023-01-13T17:57:17.215Z,100355.06
2023-01-13T17:59:48.029Z,100359.72
2023-01-13T18:02:16.643Z,100354.03
2023-01-13T18:04:45.751Z,100367.41
2023-01-13T18:07:14.185Z,100368.44
2023-01-13T18:09:42.586Z,100369.44
2023-01-13T18:12:11.687Z,100370.13
2023-01-13T18:14:42.661Z,100363.38
2023-01-13T18:17:12.619Z,100360.50
2023-01-13T18:19:58.477Z,100366.53
2023-01-13T18:22:55.930Z,100354.91
2023-01-13T18:25:41.922Z,100350.22
2023-01-13T18:28:13.172Z,100350.56
2023-01-13T18:30:42.801Z,100349.31
2023-01-13T18:33:12.826Z,100342.34
2023-01-13T18:35:43.558Z,100338.31
2023-01-13T18:38:13.539Z,100359.38
2023-01-13T18:40:44.714Z,100352.53
2023-01-13T18:43:12.168Z,100351.59
2023-01-13T18:45:40.627Z,100354.81
2023-01-13T18:48:10.612Z,100350.97
2023-01-13T18:50:40.939Z,100350.91
2023-01-13T18:53:09.447Z,100353.53
2023-01-13T18:55:38.876Z,100346.97
2023-01-13T18:58:07.512Z,100343.03
2023-01-13T19:00:37.716Z,100354.50
2023-01-13T19:05:42.996Z,100360.34
2023-01-13T19:08:11.573Z,100351.97
2023-01-13T19:10:40.703Z,100348.44
2023-01-13T19:13:11.057Z,100357.63
2023-01-13T19:15:39.809Z,100348.63
2023-01-13T19:18:08.730Z,100354.56
2023-01-13T19:20:42.539Z,100351.78
2023-01-13T19:23:11.930Z,100358.41
2023-01-13T19:25:40.467Z,100343.19
2023-01-13T19:28:08.986Z,100353.59
2023-01-13T19:30:40.020Z,100340.66
2023-01-13T19:33:08.553Z,100347.41
2023-01-13T19:35:38.813Z,100350.78
2023-01-13T19:38:08.687Z,100355.50
2023-01-13T19:40:37.366Z,100347.19
2023-01-13T19:43:23.587Z,100346.63
2023-01-13T19:45:52.332Z,100346.69
2023-01-13T19:48:21.401Z,100349.44
2023-01-13T19:50:49.956Z,100350.56
2023-01-13T19:53:19.853Z,100346.44
2023-01-13T19:55:49.432Z,100357.03
2023-01-13T19:58:20.015Z,100348.88
2023-01-13T20:00:48.768Z,100350.00
2023-01-13T20:03:18.346Z,100353.34
2023-01-13T20:05:49.071Z,100352.63
2023-01-13T20:08:21.503Z,100354.38
2023-01-13T20:10:50.674Z,100357.63
2023-01-13T20:13:19.302Z,100360.94
2023-01-13T20:15:47.844Z,100350.38
2023-01-13T20:18:19.287Z,100366.63
2023-01-13T20:20:47.955Z,100368.31
2023-01-13T20:23:20.260Z,100361.63
2023-01-13T20:25:49.135Z,100359.03
2023-01-13T20:28:17.564Z,100357.47
2023-01-13T20:30:49.934Z,100362.97
2023-01-13T20:33:18.467Z,100351.59
2023-01-13T20:35:47.203Z,100356.75
2023-01-13T20:38:16.383Z,100355.28
2023-01-13T20:40:46.273Z,100359.09
2023-01-13T20:43:13.785Z,100351.69
2023-01-13T20:45:42.309Z,100354.50
2023-01-13T20:48:13.931Z,100357.09
2023-01-13T20:50:42.498Z,100359.78
2023-01-13T20:53:11.042Z,100355.44
2023-01-13T20:55:40.971Z,100350.44
2023-01-13T20:58:10.869Z,100358.66
2023-01-13T21:00:39.430Z,100354.34
2023-01-13T21:03:07.971Z,100349.97
2023-01-13T21:05:37.381Z,100353.94
2023-01-13T21:08:06.627Z,100356.47
2023-01-13T21:10:35.436Z,100354.72
2023-01-13T21:13:21.479Z,100351.81
2023-01-13T21:15:53.020Z,100339.16
2023-01-13T21:18:38.759Z,100339.25
2023-01-13T21:21:12.835Z,100344.78
2023-01-13T21:23:41.482Z,100337.94
2023-01-13T21:26:10.381Z,100337.25
2023-01-13T21:28:39.085Z,100343.78
2023-01-13T21:31:10.561Z,100337.38
2023-01-13T21:33:39.922Z,100325.25
2023-01-13T21:36:09.236Z,100336.72
2023-01-13T21:38:38.242Z,100346.03
2023-01-13T21:41:11.377Z,100349.13
2023-01-13T21:43:57.424Z,100344.13
2023-01-13T21:46:44.456Z,100347.03
2023-01-13T21:49:13.447Z,100349.84
2023-01-13T21:51:41.931Z,100343.69
2023-01-13T21:54:10.399Z,100327.94
2023-01-13T21:56:38.835Z,100331.38
2023-01-13T21:59:07.458Z,100334.06
2023-01-13T22:01:37.305Z,100332.88
2023-01-13T22:04:25.609Z,100331.03
2023-01-13T22:06:59.945Z,100324.88
2023-01-13T22:09:28.378Z,100330.03
2023-01-13T22:11:56.777Z,100328.63
2023-01-13T22:14:28.540Z,100331.97
2023-01-13T22:17:01.319Z,100330.03
2023-01-13T22:19:30.615Z,100319.94
2023-01-13T22:21:58.981Z,100320.75
2023-01-13T22:24:30.214Z,100314.19
2023-01-13T22:26:58.673Z,100325.19
2023-01-13T22:29:29.437Z,100322.78
2023-01-13T22:32:00.073Z,100325.13
2023-01-13T22:34:28.558Z,100332.03
2023-01-13T22:36:57.034Z,100330.53
2023-01-13T22:39:25.465Z,100335.59
2023-01-13T22:41:56.210Z,100334.25
2023-01-13T22:44:25.243Z,100336.09
2023-01-13T22:46:53.640Z,100336.81
2023-01-13T22:49:23.558Z,100335.06
2023-01-13T22:51:54.654Z,100325.41
2023-01-13T22:54:24.441Z,100331.56
2023-01-13T22:56:52.904Z,100323.69
2023-01-13T22:59:23.102Z,100325.59
2023-01-13T23:01:51.493Z,100330.47
2023-01-13T23:04:21.821Z,100324.28
2023-01-13T23:06:51.685Z,100327.06
2023-01-13T23:09:20.147Z,100319.78
2023-01-13T23:11:48.642Z,100321.75
2023-01-13T23:14:20.070Z,100319.38
2023-01-13T23:16:48.523Z,100326.22
2023-01-13T23:19:17.512Z,100322.31
2023-01-13T23:21:45.949Z,100326.66
2023-01-13T23:24:15.728Z,100319.31
2023-01-13T23:26:44.243Z,100332.38
2023-01-13T23:29:15.381Z,100321.38
2023-01-13T23:31:45.161Z,100328.81
2023-01-13T23:34:16.149Z,100329.13
2023-01-13T23:36:44.705Z,100334.28
2023-01-13T23:39:18.651Z,100332.72
2023-01-13T23:41:48.448Z,100335.63
2023-01-13T23:44:16.967Z,100329.38
2023-01-13T23:46:45.453Z,100337.72
2023-01-13T23:49:16.614Z,100341.03
2023-01-13T23:51:45.111Z,100326.22
2023-01-13T23:54:17.319Z,100334.78
2023-01-13T23:56:45.805Z,100327.97
2023-01-13T23:59:17.800Z,100326.22
